TAM3908 SBSP-SBRJ
Flight info
| Callsign | TAM3908 |
|---|---|
| Flight time | 0h 35m |
| Altitude | 25000 |
| Route | NIBRU UZ171 KEVUN |
| Aircraft | A319/M-SDE3FGHIRWY/LB1 |
Departure
| Time | 2026-05-04 12:56 |
|---|---|
| Airport | Congonhas–Deputado Freitas Nobre Airport (SBSP) |
Arrival
| Time | 2026-05-04 13:31 |
|---|---|
| Airport | Santos Dumont Airport (SBRJ) |
| Time | Latitude | Longitude | Altitude | Speed | Heading |
|---|---|---|---|---|---|
| 2026-05-04 12:37 | -23.62452 | -46.66009 | 2601 ft | 0 kts | 237° |
| 2026-05-04 12:48 | -23.62451 | -46.66007 | 2600 ft | 3 kts | 237° |
| 2026-05-04 12:48 | -23.62437 | -46.65983 | 2600 ft | 4 kts | 249° |
| 2026-05-04 12:49 | -23.62435 | -46.65963 | 2600 ft | 3 kts | 325° |
| 2026-05-04 12:49 | -23.62446 | -46.65955 | 2601 ft | 0 kts | 327° |
| 2026-05-04 12:51 | -23.62443 | -46.65954 | 2601 ft | 0 kts | 354° |
| 2026-05-04 12:52 | -23.62423 | -46.65953 | 2601 ft | 5 kts | 1° |
| 2026-05-04 12:52 | -23.62372 | -46.65958 | 2600 ft | 8 kts | 337° |
| 2026-05-04 12:52 | -23.62312 | -46.66000 | 2600 ft | 12 kts | 328° |
| 2026-05-04 12:52 | -23.62240 | -46.66044 | 2600 ft | 14 kts | 337° |
| 2026-05-04 12:53 | -23.62172 | -46.66088 | 2599 ft | 13 kts | 327° |
| 2026-05-04 12:53 | -23.62131 | -46.66117 | 2599 ft | 0 kts | 327° |
| 2026-05-04 12:54 | -23.62120 | -46.66124 | 2589 ft | 5 kts | 327° |
| 2026-05-04 12:55 | -23.62066 | -46.66135 | 2597 ft | 12 kts | 9° |
| 2026-05-04 12:55 | -23.62041 | -46.66089 | 2596 ft | 8 kts | 113° |
| 2026-05-04 12:55 | -23.62172 | -46.65988 | 2599 ft | 58 kts | 147° |
| 2026-05-04 12:55 | -23.62776 | -46.65570 | 2609 ft | 144 kts | 147° |
| 2026-05-04 12:56 | -23.63704 | -46.64926 | 3157 ft | 160 kts | 146° |
| 2026-05-04 12:56 | -23.64620 | -46.64190 | 3671 ft | 169 kts | 126° |
| 2026-05-04 12:56 | -23.65201 | -46.63050 | 4146 ft | 178 kts | 113° |
| 2026-05-04 12:56 | -23.65804 | -46.61794 | 4564 ft | 198 kts | 115° |
| 2026-05-04 12:57 | -23.66484 | -46.60399 | 4959 ft | 224 kts | 116° |
| 2026-05-04 12:57 | -23.67274 | -46.58802 | 5446 ft | 249 kts | 117° |
| 2026-05-04 12:57 | -23.67924 | -46.56994 | 5902 ft | 271 kts | 97° |
| 2026-05-04 12:57 | -23.67791 | -46.54910 | 6557 ft | 282 kts | 76° |
| 2026-05-04 12:58 | -23.67467 | -46.52768 | 7385 ft | 289 kts | 81° |
| 2026-05-04 12:58 | -23.67263 | -46.50567 | 8258 ft | 294 kts | 84° |
| 2026-05-04 12:58 | -23.67100 | -46.48317 | 9137 ft | 299 kts | 85° |
| 2026-05-04 12:58 | -23.66936 | -46.46039 | 10001 ft | 303 kts | 85° |
| 2026-05-04 12:59 | -23.66757 | -46.43711 | 10582 ft | 318 kts | 85° |
| 2026-05-04 12:59 | -23.66552 | -46.41239 | 10957 ft | 335 kts | 84° |
| 2026-05-04 12:59 | -23.66323 | -46.38674 | 11592 ft | 342 kts | 84° |
| 2026-05-04 12:59 | -23.66080 | -46.36069 | 12272 ft | 348 kts | 85° |
| 2026-05-04 13:00 | -23.65825 | -46.33423 | 12973 ft | 354 kts | 85° |
| 2026-05-04 13:00 | -23.65562 | -46.30731 | 13657 ft | 359 kts | 85° |
| 2026-05-04 13:00 | -23.65295 | -46.27998 | 14311 ft | 364 kts | 85° |
| 2026-05-04 13:00 | -23.65028 | -46.25233 | 14904 ft | 369 kts | 85° |
| 2026-05-04 13:01 | -23.64758 | -46.22430 | 15500 ft | 374 kts | 85° |
| 2026-05-04 13:01 | -23.64488 | -46.19628 | 16078 ft | 379 kts | 85° |
| 2026-05-04 13:01 | -23.64213 | -46.16755 | 16649 ft | 384 kts | 85° |
| 2026-05-04 13:01 | -23.63929 | -46.13805 | 17206 ft | 389 kts | 84° |
| 2026-05-04 13:02 | -23.63644 | -46.10852 | 17763 ft | 394 kts | 84° |
| 2026-05-04 13:02 | -23.63358 | -46.07896 | 18308 ft | 399 kts | 84° |
| 2026-05-04 13:02 | -23.63063 | -46.04877 | 18818 ft | 404 kts | 84° |
| 2026-05-04 13:02 | -23.62762 | -46.01809 | 19304 ft | 407 kts | 84° |
| 2026-05-04 13:03 | -23.62458 | -45.98727 | 19815 ft | 411 kts | 84° |
| 2026-05-04 13:03 | -23.62152 | -45.95614 | 20330 ft | 414 kts | 84° |
| 2026-05-04 13:03 | -23.61844 | -45.92480 | 20843 ft | 418 kts | 84° |
| 2026-05-04 13:03 | -23.61534 | -45.89316 | 21363 ft | 421 kts | 85° |
| 2026-05-04 13:04 | -23.61223 | -45.86136 | 21878 ft | 424 kts | 85° |
| 2026-05-04 13:04 | -23.60908 | -45.82929 | 22385 ft | 427 kts | 85° |
| 2026-05-04 13:04 | -23.60588 | -45.79692 | 22898 ft | 431 kts | 85° |
| 2026-05-04 13:04 | -23.60267 | -45.76441 | 23418 ft | 434 kts | 85° |
| 2026-05-04 13:05 | -23.59946 | -45.73180 | 23924 ft | 437 kts | 85° |
| 2026-05-04 13:05 | -23.59619 | -45.69883 | 24343 ft | 440 kts | 84° |
| 2026-05-04 13:05 | -23.59285 | -45.66537 | 24762 ft | 444 kts | 85° |
| 2026-05-04 13:05 | -23.58947 | -45.63173 | 25109 ft | 448 kts | 85° |
| 2026-05-04 13:06 | -23.58610 | -45.59825 | 25216 ft | 446 kts | 85° |
| 2026-05-04 13:06 | -23.58274 | -45.56510 | 25241 ft | 438 kts | 84° |
| 2026-05-04 13:06 | -23.57936 | -45.53154 | 25244 ft | 453 kts | 84° |
| 2026-05-04 13:06 | -23.57587 | -45.49684 | 25248 ft | 468 kts | 84° |
| 2026-05-04 13:07 | -23.57145 | -45.46137 | 25242 ft | 476 kts | 79° |
| 2026-05-04 13:07 | -23.56411 | -45.42608 | 25241 ft | 478 kts | 77° |
| 2026-05-04 13:07 | -23.55659 | -45.39067 | 25241 ft | 479 kts | 77° |
| 2026-05-04 13:07 | -23.54906 | -45.35522 | 25244 ft | 479 kts | 77° |
| 2026-05-04 13:08 | -23.54152 | -45.31979 | 25242 ft | 479 kts | 77° |
| 2026-05-04 13:08 | -23.53402 | -45.28454 | 25242 ft | 480 kts | 77° |
| 2026-05-04 13:08 | -23.52648 | -45.24902 | 25244 ft | 480 kts | 77° |
| 2026-05-04 13:08 | -23.51900 | -45.21381 | 25246 ft | 480 kts | 77° |
| 2026-05-04 13:09 | -23.51147 | -45.17839 | 25259 ft | 480 kts | 77° |
| 2026-05-04 13:09 | -23.50393 | -45.14291 | 25253 ft | 480 kts | 77° |
| 2026-05-04 13:09 | -23.49638 | -45.10744 | 25253 ft | 479 kts | 77° |
| 2026-05-04 13:09 | -23.48887 | -45.07223 | 25252 ft | 479 kts | 77° |
| 2026-05-04 13:10 | -23.48381 | -45.04861 | 25248 ft | 479 kts | 77° |
| 2026-05-04 13:10 | -23.47372 | -45.00167 | 25245 ft | 479 kts | 77° |
| 2026-05-04 13:10 | -23.46617 | -44.96664 | 25241 ft | 479 kts | 76° |
| 2026-05-04 13:10 | -23.45610 | -44.93179 | 25221 ft | 478 kts | 68° |
| 2026-05-04 13:11 | -23.44428 | -44.89816 | 25221 ft | 478 kts | 68° |
| 2026-05-04 13:11 | -23.43237 | -44.86432 | 25222 ft | 478 kts | 68° |
| 2026-05-04 13:11 | -23.42040 | -44.83036 | 25220 ft | 479 kts | 68° |
| 2026-05-04 13:11 | -23.40858 | -44.79682 | 25235 ft | 479 kts | 68° |
| 2026-05-04 13:12 | -23.39663 | -44.76287 | 25229 ft | 479 kts | 68° |
| 2026-05-04 13:12 | -23.38465 | -44.72891 | 25233 ft | 479 kts | 68° |
| 2026-05-04 13:12 | -23.37273 | -44.69512 | 25232 ft | 479 kts | 68° |
| 2026-05-04 13:12 | -23.36089 | -44.66157 | 25231 ft | 479 kts | 68° |
| 2026-05-04 13:13 | -23.34899 | -44.62781 | 25231 ft | 479 kts | 68° |
| 2026-05-04 13:13 | -23.33704 | -44.59399 | 25121 ft | 479 kts | 68° |
| 2026-05-04 13:13 | -23.32506 | -44.56016 | 24736 ft | 478 kts | 68° |
| 2026-05-04 13:13 | -23.31302 | -44.52625 | 23948 ft | 482 kts | 68° |
| 2026-05-04 13:14 | -23.30092 | -44.49212 | 23126 ft | 484 kts | 68° |
| 2026-05-04 13:14 | -23.28878 | -44.45796 | 22387 ft | 482 kts | 68° |
| 2026-05-04 13:14 | -23.27684 | -44.42441 | 21660 ft | 480 kts | 68° |
| 2026-05-04 13:14 | -23.26481 | -44.39058 | 20958 ft | 477 kts | 68° |
| 2026-05-04 13:15 | -23.25285 | -44.35693 | 20351 ft | 473 kts | 68° |
| 2026-05-04 13:15 | -23.24104 | -44.32368 | 19664 ft | 470 kts | 67° |
| 2026-05-04 13:15 | -23.22932 | -44.29072 | 19102 ft | 464 kts | 68° |
| 2026-05-04 13:15 | -23.21767 | -44.25801 | 18557 ft | 461 kts | 68° |
| 2026-05-04 13:16 | -23.20618 | -44.22576 | 17982 ft | 455 kts | 68° |
| 2026-05-04 13:16 | -23.19478 | -44.19381 | 17427 ft | 450 kts | 68° |
| 2026-05-04 13:16 | -23.18352 | -44.16231 | 16890 ft | 445 kts | 68° |
| 2026-05-04 13:16 | -23.17239 | -44.13117 | 16399 ft | 440 kts | 68° |
| 2026-05-04 13:17 | -23.16151 | -44.10076 | 15934 ft | 435 kts | 68° |
| 2026-05-04 13:17 | -23.15059 | -44.07029 | 15461 ft | 430 kts | 68° |
| 2026-05-04 13:17 | -23.13984 | -44.04027 | 14876 ft | 423 kts | 68° |
| 2026-05-04 13:17 | -23.12928 | -44.01081 | 14101 ft | 415 kts | 68° |
| 2026-05-04 13:18 | -23.11885 | -43.98174 | 13134 ft | 408 kts | 68° |
| 2026-05-04 13:18 | -23.10860 | -43.95322 | 12153 ft | 401 kts | 68° |
| 2026-05-04 13:18 | -23.09856 | -43.92527 | 11312 ft | 392 kts | 68° |
| 2026-05-04 13:18 | -23.08891 | -43.89840 | 11138 ft | 374 kts | 68° |
| 2026-05-04 13:19 | -23.07955 | -43.87239 | 10787 ft | 367 kts | 68° |
| 2026-05-04 13:19 | -23.07042 | -43.84709 | 10424 ft | 361 kts | 67° |
| 2026-05-04 13:19 | -23.06132 | -43.82192 | 10126 ft | 354 kts | 67° |
| 2026-05-04 13:19 | -23.05247 | -43.79744 | 10000 ft | 341 kts | 67° |
| 2026-05-04 13:20 | -23.04397 | -43.77386 | 9871 ft | 330 kts | 67° |
| 2026-05-04 13:20 | -23.03574 | -43.75093 | 9731 ft | 320 kts | 67° |
| 2026-05-04 13:20 | -23.02781 | -43.72883 | 9489 ft | 309 kts | 67° |
| 2026-05-04 13:20 | -23.02005 | -43.70725 | 9017 ft | 305 kts | 67° |
| 2026-05-04 13:21 | -23.01233 | -43.68592 | 8478 ft | 303 kts | 67° |
| 2026-05-04 13:21 | -23.00461 | -43.66467 | 7692 ft | 310 kts | 67° |
| 2026-05-04 13:21 | -22.99662 | -43.64269 | 6981 ft | 314 kts | 66° |
| 2026-05-04 13:21 | -22.98882 | -43.62108 | 6732 ft | 300 kts | 66° |
| 2026-05-04 13:22 | -22.98134 | -43.60028 | 6408 ft | 290 kts | 67° |
| 2026-05-04 13:22 | -22.97418 | -43.58039 | 6280 ft | 273 kts | 66° |
| 2026-05-04 13:22 | -22.96746 | -43.56176 | 6217 ft | 257 kts | 65° |
| 2026-05-04 13:22 | -22.96114 | -43.54427 | 6152 ft | 240 kts | 66° |
| 2026-05-04 13:23 | -22.95512 | -43.52769 | 6099 ft | 233 kts | 65° |
| 2026-05-04 13:23 | -22.94923 | -43.51155 | 6035 ft | 228 kts | 64° |
| 2026-05-04 13:23 | -22.94310 | -43.49588 | 5868 ft | 227 kts | 64° |
| 2026-05-04 13:23 | -22.93654 | -43.48038 | 5660 ft | 225 kts | 63° |
| 2026-05-04 13:24 | -22.92993 | -43.46505 | 5465 ft | 223 kts | 62° |
| 2026-05-04 13:24 | -22.92339 | -43.44986 | 5267 ft | 222 kts | 61° |
| 2026-05-04 13:24 | -22.91689 | -43.43472 | 5079 ft | 222 kts | 62° |
| 2026-05-04 13:25 | -22.90411 | -43.40478 | 4678 ft | 217 kts | 64° |
| 2026-05-04 13:25 | -22.89785 | -43.39004 | 4490 ft | 214 kts | 65° |
| 2026-05-04 13:25 | -22.89172 | -43.37556 | 4296 ft | 210 kts | 65° |
| 2026-05-04 13:25 | -22.88590 | -43.36112 | 4119 ft | 207 kts | 72° |
| 2026-05-04 13:26 | -22.88363 | -43.34596 | 3914 ft | 203 kts | 89° |
| 2026-05-04 13:26 | -22.88487 | -43.33072 | 3660 ft | 203 kts | 94° |
| 2026-05-04 13:26 | -22.88632 | -43.31551 | 3394 ft | 201 kts | 95° |
| 2026-05-04 13:26 | -22.88769 | -43.30076 | 3155 ft | 195 kts | 94° |
| 2026-05-04 13:27 | -22.88902 | -43.28651 | 2908 ft | 186 kts | 94° |
| 2026-05-04 13:27 | -22.89028 | -43.27278 | 2667 ft | 179 kts | 94° |
| 2026-05-04 13:27 | -22.89338 | -43.25989 | 2445 ft | 176 kts | 110° |
| 2026-05-04 13:27 | -22.89863 | -43.24823 | 2186 ft | 167 kts | 114° |
| 2026-05-04 13:28 | -22.90356 | -43.23732 | 1982 ft | 155 kts | 114° |
| 2026-05-04 13:28 | -22.90800 | -43.22744 | 1776 ft | 138 kts | 113° |
| 2026-05-04 13:28 | -22.91205 | -43.21839 | 1595 ft | 129 kts | 112° |
| 2026-05-04 13:28 | -22.91592 | -43.20976 | 1419 ft | 127 kts | 111° |
| 2026-05-04 13:29 | -22.91982 | -43.20114 | 1260 ft | 129 kts | 113° |
| 2026-05-04 13:29 | -22.92558 | -43.19370 | 1119 ft | 131 kts | 136° |
| 2026-05-04 13:29 | -22.93354 | -43.18877 | 940 ft | 131 kts | 151° |
| 2026-05-04 13:29 | -22.94164 | -43.18420 | 895 ft | 132 kts | 144° |
| 2026-05-04 13:30 | -22.94554 | -43.17569 | 757 ft | 128 kts | 84° |
| 2026-05-04 13:30 | -22.94105 | -43.16779 | 657 ft | 127 kts | 37° |
| 2026-05-04 13:30 | -22.93303 | -43.16407 | 367 ft | 124 kts | 20° |
| 2026-05-04 13:30 | -22.92461 | -43.16233 | 209 ft | 127 kts | 8° |
| 2026-05-04 13:31 | -22.91582 | -43.16250 | 42 ft | 126 kts | 359° |
| 2026-05-04 13:31 | -22.90823 | -43.16298 | 24 ft | 79 kts | 357° |
| 2026-05-04 13:31 | -22.90562 | -43.16314 | 25 ft | 18 kts | 356° |
| 2026-05-04 13:31 | -22.90490 | -43.16379 | 24 ft | 14 kts | 266° |
| 2026-05-04 13:32 | -22.90497 | -43.16487 | 23 ft | 14 kts | 266° |
| 2026-05-04 13:32 | -22.90522 | -43.16555 | 22 ft | 3 kts | 174° |
| 2026-05-04 13:32 | -22.90554 | -43.16555 | 22 ft | 13 kts | 179° |
| 2026-05-04 13:32 | -22.90665 | -43.16548 | 22 ft | 19 kts | 177° |
| 2026-05-04 13:33 | -22.90786 | -43.16542 | 23 ft | 18 kts | 181° |
| 2026-05-04 13:33 | -22.90905 | -43.16546 | 23 ft | 17 kts | 176° |
| 2026-05-04 13:33 | -22.91023 | -43.16538 | 22 ft | 15 kts | 177° |
| 2026-05-04 13:33 | -22.91106 | -43.16525 | 22 ft | 12 kts | 163° |
| 2026-05-04 13:34 | -22.91185 | -43.16515 | 24 ft | 11 kts | 176° |
| 2026-05-04 13:34 | -22.91237 | -43.16516 | 22 ft | 4 kts | 209° |
| 2026-05-04 13:34 | -22.91244 | -43.16547 | 22 ft | 4 kts | 266° |
| 2026-05-04 13:34 | -22.91245 | -43.16575 | 22 ft | 3 kts | 268° |
| 2026-05-04 13:35 | -22.91245 | -43.16582 | 22 ft | 0 kts | 268° |